Time;durP1;ratioP1;P1;durP2;ratioP2;P2;SDS_P1;SDS_P2;PMS_P1;PMS_P2;Temp;Humidity;BMP_temperature;BMP_pressure;BME280_temperature;BME280_humidity;BME280_pressure;Samples;Min_cycle;Max_cycle;Signal;HPM_P1;HPM_P2
2023/10/09 00:02:08;;;;;;;1.10;1.10;;;;;;;2.00;87.88;96565.25;5073070;28;20040;-60
2023/10/09 00:04:38;;;;;;;1.52;1.00;;;;;;;1.98;87.29;96576.97;5090945;28;20475;-60
2023/10/09 00:07:07;;;;;;;1.27;1.17;;;;;;;2.00;87.89;96575.69;5091182;28;20065;-59
2023/10/09 00:12:11;;;;;;;0.77;0.77;;;;;;;1.96;87.85;96602.56;5091282;28;20147;-60
2023/10/09 00:14:38;;;;;;;1.23;1.10;;;;;;;1.96;87.85;96590.28;5090164;28;20425;-59
2023/10/09 00:19:37;;;;;;;1.23;1.13;;;;;;;2.04;88.42;96615.16;5070705;28;20044;-60
2023/10/09 00:22:10;;;;;;;1.23;1.13;;;;;;;1.98;88.02;96616.16;5070777;28;20040;-60
2023/10/09 00:24:41;;;;;;;1.90;1.30;;;;;;;1.99;88.60;96610.69;5070539;28;20064;-59
2023/10/09 00:27:14;;;;;;;1.23;1.13;;;;;;;2.03;88.21;96622.22;5052578;28;20060;-60
2023/10/09 00:29:45;;;;;;;1.63;1.52;;;;;;;2.03;88.86;96616.22;5070334;28;20567;-59
2023/10/09 00:34:43;;;;;;;1.60;1.50;;;;;;;2.08;88.77;96621.47;5052392;28;20048;-59
2023/10/09 00:37:26;;;;;;;1.48;1.35;;;;;;;1.96;89.26;96626.84;5052418;28;20102;-59
2023/10/09 00:39:56;;;;;;;1.70;1.60;;;;;;;2.02;89.53;96638.91;5070769;28;20094;-59
2023/10/09 00:42:32;;;;;;;1.35;1.15;;;;;;;1.95;89.32;96646.19;5070718;28;20044;-60
2023/10/09 00:45:03;;;;;;;1.40;1.30;;;;;;;1.99;89.88;96655.09;5053833;28;20037;-58
2023/10/09 00:47:35;;;;;;;2.25;1.63;;;;;;;2.02;90.13;96651.19;5069878;28;20448;-60
2023/10/09 00:52:50;;;;;;;2.67;1.80;;;;;;;2.04;90.28;96659.59;5052118;28;20080;-60
2023/10/09 00:58:12;;;;;;;1.40;1.30;;;;;;;2.09;89.54;96674.50;5052047;28;20479;-59
2023/10/09 01:05:56;;;;;;;1.20;1.10;;;;;;;2.09;89.92;96685.75;5019627;28;20048;-59
2023/10/09 01:11:10;;;;;;;1.00;1.00;;;;;;;2.05;89.81;96682.84;5070497;28;20496;-60
2023/10/09 01:13:52;;;;;;;1.52;1.40;;;;;;;2.14;90.16;96692.84;5070473;28;20044;-61
2023/10/09 01:16:22;;;;;;;1.25;1.02;;;;;;;2.08;90.41;96701.69;5070456;28;20497;-59
2023/10/09 01:18:49;;;;;;;1.17;1.10;;;;;;;2.08;90.47;96706.91;5066104;28;20083;-60
2023/10/09 01:21:31;;;;;;;1.98;1.50;;;;;;;2.07;90.31;96700.91;5074385;28;20068;-59
2023/10/09 01:24:03;;;;;;;1.63;1.50;;;;;;;2.16;90.69;96701.22;5093788;28;20531;-60
2023/10/09 01:26:44;;;;;;;1.30;1.20;;;;;;;2.10;90.41;96712.69;5093907;28;20068;-59
2023/10/09 01:29:14;;;;;;;;;;;;;;;2.11;90.35;96712.41;5094716;28;20051;-60
2023/10/09 01:31:55;;;;;;;1.80;1.70;;;;;;;2.18;90.18;96725.31;5109787;28;19927;-59
2023/10/09 01:34:38;;;;;;;1.30;1.20;;;;;;;2.21;89.75;96725.59;5075845;28;20456;-60
2023/10/09 01:37:15;;;;;;;1.20;1.10;;;;;;;2.13;89.74;96723.41;5058734;28;20036;-60
2023/10/09 01:39:42;;;;;;;1.30;1.20;;;;;;;2.10;90.20;96728.34;5075486;28;20067;-59
2023/10/09 01:42:09;;;;;;;0.88;0.88;;;;;;;2.10;89.56;96744.03;5059336;28;20066;-60
2023/10/09 01:44:34;;;;;;;1.10;1.00;;;;;;;2.14;89.87;96747.72;5093844;28;20574;-61
2023/10/09 01:47:07;;;;;;;1.90;1.40;;;;;;;2.20;90.19;96744.91;5074734;28;20063;-59
2023/10/09 01:49:37;;;;;;;1.27;1.10;;;;;;;2.15;89.63;96752.72;5094019;28;20043;-59
2023/10/09 01:52:10;;;;;;;0.90;0.90;;;;;;;2.17;89.72;96758.47;5075342;28;20040;-60
2023/10/09 01:54:46;;;;;;;1.10;1.00;;;;;;;2.23;89.95;96772.38;5093647;28;20092;-60
2023/10/09 01:57:15;;;;;;;1.27;0.93;;;;;;;2.26;89.53;96774.50;5093369;28;22770;-59
2023/10/09 01:59:47;;;;;;;1.30;1.20;;;;;;;2.32;90.00;96772.72;5074349;28;20047;-59
2023/10/09 02:02:25;;;;;;;1.50;1.40;;;;;;;2.38;89.83;96787.41;5093836;28;20354;-60
2023/10/09 02:04:54;;;;;;;1.13;1.02;;;;;;;2.34;89.07;96792.34;5093152;28;20051;-60
2023/10/09 02:07:28;;;;;;;1.63;1.08;;;;;;;2.34;89.25;96796.78;5093537;28;20077;-59
2023/10/09 02:09:57;;;;;;;1.10;1.00;;;;;;;2.37;88.79;96791.84;5093163;28;20055;-60
2023/10/09 02:12:23;;;;;;;0.90;0.90;;;;;;;2.35;88.58;96791.28;5093481;28;20409;-60
2023/10/09 02:14:55;;;;;;;1.25;0.90;;;;;;;2.29;88.58;96807.97;5074993;28;20044;-60
2023/10/09 02:17:28;;;;;;;1.08;0.98;;;;;;;2.37;88.56;96807.53;5092648;28;20172;-59
2023/10/09 02:19:54;;;;;;;0.80;0.80;;;;;;;2.37;88.52;96815.38;5093485;28;20043;-60
2023/10/09 02:22:25;;;;;;;1.00;1.00;;;;;;;2.46;88.12;96813.88;5093401;28;20150;-59
2023/10/09 02:24:57;;;;;;;1.92;1.20;;;;;;;2.51;88.13;96823.63;5093200;28;20051;-59
2023/10/09 02:30:15;;;;;;;0.90;0.90;;;;;;;2.57;87.60;96832.31;5074588;28;20040;-59
2023/10/09 02:32:42;;;;;;;1.70;1.02;;;;;;;2.55;87.82;96835.16;5092493;28;20473;-60
2023/10/09 02:35:20;;;;;;;0.70;0.70;;;;;;;2.49;87.87;96831.69;5092863;28;20123;-58
2023/10/09 02:37:46;;;;;;;0.93;0.93;;;;;;;2.48;87.75;96845.03;5074593;28;20047;-59
2023/10/09 02:40:24;;;;;;;0.98;0.93;;;;;;;2.41;87.86;96839.19;5092713;28;20039;-60
2023/10/09 02:42:50;;;;;;;1.25;1.10;;;;;;;2.45;88.96;96846.31;5073678;28;20044;-59
2023/10/09 02:45:19;;;;;;;1.00;1.00;;;;;;;2.42;89.40;96846.81;5092672;28;20047;-59
2023/10/09 02:47:48;;;;;;;1.20;1.10;;;;;;;2.48;89.48;96858.09;5092827;28;20044;-59
2023/10/09 02:50:21;;;;;;;2.17;1.30;;;;;;;2.47;88.54;96854.72;5092608;28;20035;-59
2023/10/09 02:52:52;;;;;;;1.50;1.40;;;;;;;2.45;88.14;96853.38;5092223;28;20497;-59
2023/10/09 02:55:26;;;;;;;1.05;1.05;;;;;;;2.48;88.83;96858.88;5092473;28;20032;-59
2023/10/09 02:58:20;;;;;;;1.63;1.08;;;;;;;2.46;88.35;96865.41;5091207;28;20060;-59
2023/10/09 03:00:44;;;;;;;1.30;1.20;;;;;;;2.47;88.01;96867.78;5076497;28;20062;-60
2023/10/09 03:03:09;;;;;;;1.00;1.00;;;;;;;2.45;87.01;96872.47;5074020;28;20051;-59
2023/10/09 03:05:38;;;;;;;1.30;1.20;;;;;;;2.45;87.62;96880.31;5092116;28;20048;-58
2023/10/09 03:08:04;;;;;;;1.90;1.70;;;;;;;2.42;87.86;96874.78;5073975;28;20416;-60
2023/10/09 03:10:30;;;;;;;1.55;1.45;;;;;;;2.53;87.76;96876.47;5091997;28;20040;-59
2023/10/09 03:12:55;;;;;;;1.60;1.38;;;;;;;2.56;87.34;96883.81;5092171;28;20100;-60
2023/10/09 03:15:22;;;;;;;2.38;1.50;;;;;;;2.61;87.43;96890.91;5091694;28;20361;-59
2023/10/09 03:17:48;;;;;;;3.15;1.70;;;;;;;2.53;87.52;96894.78;5091440;28;20423;-60
2023/10/09 03:20:17;;;;;;;1.42;1.30;;;;;;;2.54;87.61;96906.03;5091597;28;20512;-59
2023/10/09 03:22:48;;;;;;;1.75;1.40;;;;;;;2.57;87.58;96903.69;5092043;28;20052;-60
2023/10/09 03:25:16;;;;;;;1.60;1.50;;;;;;;2.61;86.75;96923.06;5091722;28;20428;-60
2023/10/09 03:27:46;;;;;;;1.73;1.40;;;;;;;2.58;86.78;96907.09;5074094;28;20417;-59
2023/10/09 03:30:25;;;;;;;1.10;1.05;;;;;;;2.55;86.81;96912.81;5091598;28;20048;-60
2023/10/09 03:32:52;;;;;;;1.77;1.30;;;;;;;2.58;86.63;96922.78;5091867;28;20040;-60
2023/10/09 03:35:27;;;;;;;1.58;1.40;;;;;;;2.55;86.73;96912.81;5073627;28;20044;-59
2023/10/09 03:37:57;;;;;;;1.40;1.30;;;;;;;2.60;86.61;96924.13;5091403;28;20051;-61
2023/10/09 03:40:27;;;;;;;1.80;1.42;;;;;;;2.57;86.70;96927.22;5091216;28;20535;-58
2023/10/09 03:42:53;;;;;;;1.00;1.00;;;;;;;2.54;86.40;96929.56;5090828;28;20197;-60
2023/10/09 03:45:25;;;;;;;1.27;1.17;;;;;;;2.60;86.38;96939.81;5072855;28;20131;-59
2023/10/09 03:47:57;;;;;;;1.27;1.17;;;;;;;2.58;86.75;96947.09;5091355;28;20040;-60
2023/10/09 03:50:26;;;;;;;1.70;1.20;;;;;;;2.61;86.33;96945.84;5091306;28;20044;-61
2023/10/09 03:52:54;;;;;;;2.00;1.70;;;;;;;2.60;86.91;96960.75;5091087;28;20040;-60
2023/10/09 03:55:22;;;;;;;1.30;1.20;;;;;;;2.65;86.74;96965.25;5073182;28;20036;-59
2023/10/09 03:57:47;;;;;;;1.20;1.10;;;;;;;2.62;86.16;96965.75;5090883;28;20056;-59
2023/10/09 04:00:27;;;;;;;1.15;1.13;;;;;;;2.66;86.40;96972.06;5091218;28;20417;-59
2023/10/09 04:02:57;;;;;;;1.33;1.23;;;;;;;2.57;86.06;96976.13;5091236;28;20055;-60
2023/10/09 04:05:24;;;;;;;1.63;1.30;;;;;;;2.56;86.44;96979.75;5091390;28;20602;-59
2023/10/09 04:07:52;;;;;;;1.30;1.20;;;;;;;2.60;86.50;96980.88;5091070;28;20048;-60
2023/10/09 04:13:08;;;;;;;1.42;1.20;;;;;;;2.53;86.48;96988.09;5090847;28;20649;-60
2023/10/09 04:15:35;;;;;;;;;;;;;;;2.55;86.42;96991.28;5091730;28;20134;-59
2023/10/09 04:18:03;;;;;;;1.48;1.38;;;;;;;2.57;86.55;96987.38;5090653;28;20290;-58
2023/10/09 04:23:04;;;;;;;1.48;1.38;;;;;;;2.67;85.27;96997.16;5091229;28;20404;-61
2023/10/09 04:25:52;;;;;;;2.72;1.40;;;;;;;2.64;85.56;97005.50;5091218;28;20066;-60
2023/10/09 04:28:21;;;;;;;2.17;1.92;;;;;;;2.65;85.88;97004.47;5090261;28;20063;-61
2023/10/09 04:30:53;;;;;;;;;;;;;;;2.65;85.03;97014.94;5091333;28;20047;-59
2023/10/09 04:33:29;;;;;;;2.92;1.80;;;;;;;2.60;85.60;97013.03;5072598;28;19930;-59
2023/10/09 04:38:55;;;;;;;1.60;1.50;;;;;;;2.61;85.82;97022.47;5090262;28;20051;-60
2023/10/09 04:41:32;;;;;;;1.38;1.27;;;;;;;2.61;85.14;97034.75;5090457;28;20447;-58
2023/10/09 04:44:18;;;;;;;1.50;1.30;;;;;;;2.59;85.76;97029.78;5073008;28;20067;-61
2023/10/09 04:57:45;;;;;;;1.15;1.13;;;;;;;2.62;85.70;97047.59;5078131;28;20055;-60
2023/10/09 05:03:56;;;;;;;1.08;1.08;;;;;;;2.71;85.08;97055.81;5092861;28;20524;-58
2023/10/09 05:05:58;;;;;;;1.30;1.20;;;;;;;2.64;85.01;97068.28;5045028;28;20082;-59
2023/10/09 05:16:19;;;;;;;1.27;1.20;;;;;;;2.68;85.27;97074.63;5092499;28;20401;-59
2023/10/09 05:18:55;;;;;;;1.90;1.52;;;;;;;2.64;85.45;97076.13;5075435;28;20152;-60
2023/10/09 05:37:32;;;;;;;2.60;1.40;;;;;;;2.81;85.00;97103.03;5090750;28;20101;-61
2023/10/09 05:47:53;;;;;;;1.40;1.30;;;;;;;2.91;84.45;97121.47;5091508;28;20040;-60
2023/10/09 06:01:06;;;;;;;1.33;1.23;;;;;;;3.17;83.96;97140.06;5090172;28;20056;-59
2023/10/09 06:03:49;;;;;;;2.05;1.70;;;;;;;3.20;83.97;97152.69;5074603;28;19924;-58
2023/10/09 06:06:32;;;;;;;1.60;1.50;;;;;;;3.12;84.13;97155.75;5092587;28;20048;-61
2023/10/09 06:11:49;;;;;;;2.80;1.48;;;;;;;3.07;84.24;97156.47;5092895;28;20515;-57
2023/10/09 06:14:25;;;;;;;1.73;1.30;;;;;;;3.11;84.15;97167.22;5092941;28;20052;-60
2023/10/09 06:19:26;;;;;;;2.13;1.65;;;;;;;3.29;84.51;97164.28;5082215;28;20085;-61
2023/10/09 06:24:41;;;;;;;2.20;1.60;;;;;;;3.25;85.61;97178.94;5090096;28;20039;-60
2023/10/09 06:29:36;;;;;;;1.52;1.17;;;;;;;3.35;83.62;97181.69;5092395;28;20039;-61
2023/10/09 06:34:56;;;;;;;1.40;1.30;;;;;;;3.58;83.63;97188.47;5054617;28;20079;-59
2023/10/09 06:42:33;;;;;;;2.28;1.38;;;;;;;3.67;82.38;97198.50;5091746;28;20039;-58
2023/10/09 06:45:16;;;;;;;1.42;1.33;;;;;;;3.54;83.11;97195.22;5023181;28;20147;-60
2023/10/09 06:47:55;;;;;;;1.88;1.13;;;;;;;3.51;82.74;97208.03;5068226;28;20055;-59
2023/10/09 06:50:25;;;;;;;1.75;1.40;;;;;;;3.55;83.65;97209.91;5056153;28;20044;-59
2023/10/09 06:52:57;;;;;;;1.45;1.35;;;;;;;3.66;82.75;97231.00;5056461;28;20409;-60
2023/10/09 06:55:35;;;;;;;3.22;1.60;;;;;;;3.61;83.32;97222.03;5074112;28;20063;-60
2023/10/09 06:58:01;;;;;;;1.75;1.63;;;;;;;3.64;83.53;97228.59;5091333;28;20070;-58
2023/10/09 07:03:12;;;;;;;2.35;1.63;;;;;;;3.59;83.30;97239.84;5075456;28;20037;-56
2023/10/09 07:08:59;;;;;;;1.75;1.52;;;;;;;3.67;83.06;97243.84;5060111;28;20162;-56
2023/10/09 07:14:07;;;;;;;1.98;1.48;;;;;;;3.64;83.20;97257.41;5089803;28;20062;-57
2023/10/09 07:16:57;;;;;;;2.38;1.65;;;;;;;3.74;83.35;97265.41;5088026;28;20497;-56
2023/10/09 07:22:23;;;;;;;1.90;1.70;;;;;;;3.82;82.37;97272.84;5071555;28;20167;-59
2023/10/09 07:26:00;;;;;;;2.33;1.45;;;;;;;3.70;82.33;97274.78;5067195;28;20124;-58
2023/10/09 07:29:22;;;;;;;1.73;1.60;;;;;;;3.77;82.17;97285.88;5058371;28;20417;-60
2023/10/09 07:32:27;;;;;;;1.70;1.60;;;;;;;3.77;81.97;97279.84;5086858;28;20070;-59
2023/10/09 07:35:40;;;;;;;2.00;1.50;;;;;;;3.79;81.75;97293.50;5053409;28;20604;-61
2023/10/09 07:38:37;;;;;;;2.08;1.50;;;;;;;3.71;83.06;97307.03;5087490;28;20488;-59
2023/10/09 07:43:50;;;;;;;1.38;1.30;;;;;;;3.66;82.78;97313.00;5085908;28;20044;-59
2023/10/09 07:46:32;;;;;;;1.83;1.52;;;;;;;3.76;82.45;97317.56;5080124;28;20044;-60
2023/10/09 07:49:08;;;;;;;1.33;1.20;;;;;;;3.78;81.75;97316.28;5086172;28;20051;-60
2023/10/09 07:51:36;;;;;;;1.40;1.30;;;;;;;3.78;81.81;97328.59;5072486;28;20047;-60
2023/10/09 07:54:08;;;;;;;1.33;1.23;;;;;;;3.81;82.09;97313.19;5090697;28;20059;-61
2023/10/09 07:56:40;;;;;;;1.33;1.23;;;;;;;3.91;81.68;97320.34;5091275;28;20048;-61
2023/10/09 07:59:12;;;;;;;1.40;1.30;;;;;;;3.89;82.08;97322.44;5090072;28;20428;-59
2023/10/09 08:01:59;;;;;;;1.40;1.30;;;;;;;3.91;81.82;97330.84;5071935;28;20524;-60
2023/10/09 08:04:39;;;;;;;1.50;1.40;;;;;;;3.94;81.02;97337.44;5084041;28;20079;-58
2023/10/09 08:07:19;;;;;;;1.40;1.30;;;;;;;3.94;81.51;97333.00;5087608;28;20035;-58
2023/10/09 08:09:48;;;;;;;3.90;1.50;;;;;;;3.92;81.62;97337.69;5086490;28;20036;-57
2023/10/09 08:15:20;;;;;;;1.65;1.17;;;;;;;4.03;81.19;97351.69;5086102;28;20126;-58
2023/10/09 08:18:18;;;;;;;1.45;1.20;;;;;;;4.05;80.31;97347.00;5076102;28;20501;-58
2023/10/09 08:23:29;;;;;;;1.58;1.48;;;;;;;4.19;80.58;97360.53;5090952;28;20126;-59
2023/10/09 08:26:12;;;;;;;1.20;1.10;;;;;;;4.27;80.39;97357.50;5090835;28;20414;-61
2023/10/09 08:28:39;;;;;;;1.65;1.50;;;;;;;4.39;79.87;97362.59;5077570;28;20572;-58
2023/10/09 08:31:19;;;;;;;0.95;0.93;;;;;;;4.41;78.61;97366.56;5076393;28;20040;-58
2023/10/09 08:33:56;;;;;;;1.10;1.10;;;;;;;4.30;78.99;97365.66;5095156;28;20056;-59
2023/10/09 08:36:28;;;;;;;1.58;1.20;;;;;;;4.53;78.82;97374.28;5078193;28;20047;-60
2023/10/09 08:38:58;;;;;;;1.27;1.17;;;;;;;4.68;77.65;97374.44;5094983;28;20048;-58
2023/10/09 08:41:29;;;;;;;1.10;1.00;;;;;;;4.62;77.11;97378.03;5094620;28;20175;-60
2023/10/09 08:43:57;;;;;;;1.23;1.10;;;;;;;4.73;77.53;97390.19;5094829;28;20120;-61
2023/10/09 08:46:28;;;;;;;1.73;1.50;;;;;;;4.92;78.19;97390.66;5076438;28;20413;-60
2023/10/09 08:48:56;;;;;;;1.38;1.27;;;;;;;4.96;77.33;97383.84;5076432;28;20055;-60
2023/10/09 08:51:24;;;;;;;2.33;1.60;;;;;;;5.05;77.61;97399.94;5094251;28;20393;-59
2023/10/09 08:53:49;;;;;;;1.45;1.35;;;;;;;5.09;76.70;97406.28;5094682;28;20048;-59
2023/10/09 08:56:23;;;;;;;1.20;1.10;;;;;;;5.14;76.52;97403.69;5094485;28;20047;-61
2023/10/09 08:58:55;;;;;;;1.30;1.20;;;;;;;5.07;75.53;97405.75;5076567;28;20058;-57
2023/10/09 09:01:21;;;;;;;1.77;1.50;;;;;;;5.05;75.35;97412.28;5070022;28;20047;-60
2023/10/09 09:03:50;;;;;;;1.27;1.17;;;;;;;5.08;75.32;97406.53;5094830;28;20044;-60
2023/10/09 09:06:19;;;;;;;1.10;1.00;;;;;;;5.04;74.10;97413.34;5094481;28;20054;-61
2023/10/09 09:08:46;;;;;;;1.30;1.20;;;;;;;4.94;75.11;97411.38;5094243;28;20051;-60
2023/10/09 09:11:22;;;;;;;1.25;1.15;;;;;;;4.84;75.54;97419.97;5094186;28;20068;-59
2023/10/09 09:14:05;;;;;;;1.10;1.10;;;;;;;4.77;74.95;97420.19;5094312;28;20378;-59
2023/10/09 09:16:36;;;;;;;1.40;1.30;;;;;;;4.86;74.79;97425.00;5093918;28;20081;-61
2023/10/09 09:21:42;;;;;;;2.35;1.10;;;;;;;4.91;75.24;97438.16;5092542;28;20054;-59
2023/10/09 09:26:59;;;;;;;1.88;1.08;;;;;;;4.80;75.32;97436.47;5076204;28;20032;-62
2023/10/09 09:29:38;;;;;;;1.20;1.10;;;;;;;4.87;76.26;97434.44;5094060;28;20040;-60
2023/10/09 09:32:19;;;;;;;0.95;0.95;;;;;;;4.87;75.25;97450.19;5094363;28;20036;-60
2023/10/09 09:35:04;;;;;;;1.88;1.30;;;;;;;4.88;76.23;97438.63;5056974;28;20501;-60
2023/10/09 09:43:05;;;;;;;1.52;1.20;;;;;;;4.83;76.32;97452.53;5074369;28;20135;-58
2023/10/09 09:45:35;;;;;;;1.40;1.10;;;;;;;4.91;75.49;97457.34;5075238;28;20071;-61
2023/10/09 09:48:06;;;;;;;0.80;0.80;;;;;;;4.93;75.08;97452.59;5092774;28;20036;-61
2023/10/09 09:50:43;;;;;;;1.30;1.20;;;;;;;4.94;75.28;97456.03;5092227;28;20404;-60
2023/10/09 09:53:18;;;;;;;2.65;1.20;;;;;;;4.91;75.42;97443.38;5093835;28;20040;-61
2023/10/09 09:55:58;;;;;;;1.50;1.38;;;;;;;4.82;76.60;97458.78;5073396;28;20043;-61
2023/10/09 09:58:32;;;;;;;1.40;1.30;;;;;;;4.89;77.47;97459.41;5056381;28;20702;-60
2023/10/09 10:01:03;;;;;;;1.80;1.10;;;;;;;4.96;76.79;97459.19;5087977;28;20039;-59
2023/10/09 10:03:36;;;;;;;1.60;1.10;;;;;;;4.86;76.13;97464.38;5072699;28;20044;-60
2023/10/09 10:06:10;;;;;;;2.00;1.05;;;;;;;4.71;75.92;97483.38;5075346;28;20046;-60
2023/10/09 10:08:39;;;;;;;2.03;1.30;;;;;;;4.77;77.00;97467.44;5089047;28;20052;-58
2023/10/09 10:11:05;;;;;;;1.65;1.27;;;;;;;4.62;77.36;97474.31;5092330;28;20042;-60
2023/10/09 10:13:40;;;;;;;1.25;1.20;;;;;;;4.60;76.68;97482.44;5091745;28;20455;-60
2023/10/09 10:16:13;;;;;;;1.58;1.20;;;;;;;4.65;77.26;97479.91;5091556;28;20530;-59
2023/10/09 10:19:00;;;;;;;3.70;1.27;;;;;;;4.63;76.73;97492.47;5088293;28;20051;-60
2023/10/09 10:21:49;;;;;;;1.52;1.23;;;;;;;4.71;76.68;97491.25;5074123;28;20040;-61
2023/10/09 10:24:28;;;;;;;2.15;1.40;;;;;;;4.72;75.52;97490.19;5089463;28;20054;-60
2023/10/09 10:27:10;;;;;;;1.20;1.10;;;;;;;4.56;74.70;97507.63;5091432;28;20093;-62
2023/10/09 10:29:38;;;;;;;0.80;0.80;;;;;;;4.62;74.94;97498.75;5092975;28;20063;-62
2023/10/09 10:32:08;;;;;;;1.50;1.00;;;;;;;4.60;74.53;97506.06;5051699;28;20089;-59
2023/10/09 10:35:06;;;;;;;1.65;1.20;;;;;;;4.70;75.62;97500.13;5092144;28;20047;-56
2023/10/09 10:37:51;;;;;;;2.88;1.20;;;;;;;4.72;74.49;97508.56;5092982;28;20047;-59
2023/10/09 10:40:40;;;;;;;1.15;1.10;;;;;;;4.75;74.98;97508.88;5074131;28;20046;-60
2023/10/09 10:43:13;;;;;;;2.15;1.50;;;;;;;4.74;75.44;97506.50;5092516;28;20044;-61
2023/10/09 10:45:46;;;;;;;1.40;1.30;;;;;;;4.74;75.28;97509.91;5092543;28;20119;-59
2023/10/09 10:48:37;;;;;;;1.45;1.35;;;;;;;4.70;74.85;97518.50;5074395;28;20078;-58
2023/10/09 10:51:04;;;;;;;1.00;1.00;;;;;;;4.71;76.38;97528.00;5092492;28;20397;-61
2023/10/09 10:53:47;;;;;;;1.55;1.20;;;;;;;4.68;74.90;97524.03;5074025;28;20044;-59
2023/10/09 11:01:50;;;;;;;1.20;1.10;;;;;;;4.73;74.53;97531.94;5092044;28;20044;-60
2023/10/09 11:05:14;;;;;;;2.03;1.17;;;;;;;4.73;74.19;97534.56;5091573;28;20090;-58
2023/10/09 11:12:37;;;;;;;1.52;1.20;;;;;;;4.89;75.46;97545.25;5089922;28;20066;-57
2023/10/09 11:18:07;;;;;;;1.30;1.20;;;;;;;5.06;72.96;97553.03;5040648;28;20054;-59
2023/10/09 11:20:36;;;;;;;1.20;1.10;;;;;;;5.00;73.07;97555.63;5065489;28;20036;-61
2023/10/09 11:25:49;;;;;;;1.48;1.20;;;;;;;4.67;76.78;97574.13;5058195;28;20042;-60
2023/10/09 11:28:42;;;;;;;;;;;;;;;4.70;77.30;97563.13;5041025;28;20134;-58
2023/10/09 11:31:15;;;;;;;2.00;1.40;;;;;;;4.62;77.68;97581.91;5036758;28;20395;-61
2023/10/09 11:33:48;;;;;;;2.28;1.35;;;;;;;4.55;77.10;97584.72;5070035;28;20060;-61
2023/10/09 11:36:34;;;;;;;1.25;1.10;;;;;;;4.62;77.43;97585.34;5089137;28;20036;-61
2023/10/09 11:39:17;;;;;;;1.40;1.30;;;;;;;4.73;77.93;97584.44;5073482;28;20048;-61
2023/10/09 11:41:44;;;;;;;1.35;1.20;;;;;;;4.69;78.02;97593.84;5092076;28;20047;-57
2023/10/09 11:44:18;;;;;;;2.17;1.40;;;;;;;4.59;78.46;97588.47;5073090;28;20448;-58
2023/10/09 11:47:22;;;;;;;1.77;1.42;;;;;;;4.60;77.43;97597.13;5057036;28;20131;-58
2023/10/09 11:52:38;;;;;;;1.20;1.10;;;;;;;4.55;78.20;97603.88;5091340;28;20044;-58
2023/10/09 11:55:07;;;;;;;1.20;1.10;;;;;;;4.54;77.24;97602.31;5089706;28;20078;-59
2023/10/09 11:57:33;;;;;;;3.03;1.40;;;;;;;4.64;78.17;97599.00;5079746;28;20058;-61
2023/10/09 12:00:00;;;;;;;1.30;1.20;;;;;;;4.55;77.92;97609.13;5070458;28;20067;-59
2023/10/09 12:02:26;;;;;;;1.40;1.30;;;;;;;4.58;76.86;97604.44;5088667;28;20067;-60
2023/10/09 12:04:55;;;;;;;2.15;1.40;;;;;;;4.66;76.72;97601.41;5089503;28;20056;-61
2023/10/09 12:07:25;;;;;;;1.88;1.40;;;;;;;4.70;75.58;97613.00;5091057;28;20032;-60
2023/10/09 12:09:56;;;;;;;1.77;1.60;;;;;;;4.69;76.45;97612.22;5089692;28;20525;-61
2023/10/09 12:12:26;;;;;;;2.90;1.63;;;;;;;4.62;76.16;97619.47;5091023;28;20293;-61
2023/10/09 12:14:53;;;;;;;1.52;1.40;;;;;;;4.64;75.91;97624.47;5090695;28;20048;-60
2023/10/09 12:17:18;;;;;;;1.77;1.30;;;;;;;4.60;75.25;97637.28;5088912;28;20575;-58
2023/10/09 12:19:44;;;;;;;1.55;1.45;;;;;;;4.61;76.94;97635.44;5057814;28;20048;-59
2023/10/09 12:22:10;;;;;;;2.13;1.40;;;;;;;4.64;76.86;97635.75;5090474;28;20036;-58
2023/10/09 12:24:37;;;;;;;1.50;1.40;;;;;;;4.63;75.27;97644.69;5090477;28;20044;-59
2023/10/09 12:27:09;;;;;;;1.33;1.20;;;;;;;4.64;75.03;97642.84;5039387;28;20131;-60
2023/10/09 12:29:35;;;;;;;1.27;1.10;;;;;;;4.60;74.85;97652.25;5090957;28;20070;-60
2023/10/09 12:32:02;;;;;;;2.13;1.35;;;;;;;4.55;75.10;97647.69;5091022;28;20080;-61
2023/10/09 12:34:30;;;;;;;1.00;1.00;;;;;;;4.50;75.45;97655.50;5090420;28;20048;-61
2023/10/09 12:37:01;;;;;;;1.15;1.00;;;;;;;4.47;77.34;97654.16;5088153;28;20035;-61
2023/10/09 12:39:33;;;;;;;1.65;1.30;;;;;;;4.42;76.98;97655.91;5068074;28;20052;-61
2023/10/09 12:42:06;;;;;;;2.20;1.63;;;;;;;4.49;77.68;97656.53;5090086;28;20444;-61
2023/10/09 12:44:39;;;;;;;1.58;1.38;;;;;;;4.59;77.16;97661.94;5089192;28;20048;-60
2023/10/09 12:47:06;;;;;;;2.92;1.38;;;;;;;4.58;77.52;97672.66;5090343;28;20109;-60
2023/10/09 12:49:32;;;;;;;1.98;1.70;;;;;;;4.57;77.00;97663.22;5089332;28;20084;-62
2023/10/09 12:51:58;;;;;;;2.80;1.30;;;;;;;4.60;76.77;97668.78;5072759;28;20036;-60
2023/10/09 12:54:28;;;;;;;1.40;1.20;;;;;;;4.60;77.30;97668.00;5090300;28;20097;-61
2023/10/09 12:56:55;;;;;;;2.47;1.40;;;;;;;4.59;77.00;97667.19;5072886;28;20075;-59
2023/10/09 12:59:24;;;;;;;1.42;1.33;;;;;;;4.54;78.41;97673.16;5070820;28;20060;-60
2023/10/09 13:01:57;;;;;;;1.60;1.50;;;;;;;4.52;78.89;97687.53;5090899;28;20078;-61
2023/10/09 13:04:23;;;;;;;2.72;1.52;;;;;;;4.45;79.64;97677.22;5053285;28;20048;-60
2023/10/09 13:06:53;;;;;;;2.63;1.38;;;;;;;4.45;79.53;97684.28;5070644;28;20043;-60
2023/10/09 13:09:33;;;;;;;3.80;1.90;;;;;;;4.49;80.59;97688.03;5081029;28;20318;-60
2023/10/09 13:12:00;;;;;;;2.33;1.50;;;;;;;4.44;80.76;97690.56;5090845;28;20101;-62
2023/10/09 13:14:33;;;;;;;1.83;1.45;;;;;;;4.38;80.61;97696.75;5071936;28;20048;-60
2023/10/09 13:17:00;;;;;;;1.33;1.20;;;;;;;4.31;80.34;97697.72;5074154;28;20039;-60
2023/10/09 13:19:26;;;;;;;2.72;1.35;;;;;;;4.35;81.86;97707.72;5083645;28;20068;-59
2023/10/09 13:21:51;;;;;;;1.70;1.42;;;;;;;4.32;81.66;97703.75;5093492;28;20036;-59
2023/10/09 13:24:20;;;;;;;1.40;1.30;;;;;;;4.20;82.24;97709.06;5092464;28;20063;-58
2023/10/09 13:26:46;;;;;;;2.45;1.60;;;;;;;4.21;83.47;97709.88;5092389;28;20047;-61
2023/10/09 13:29:13;;;;;;;1.40;1.30;;;;;;;4.21;83.45;97713.31;5092678;28;20054;-61
2023/10/09 13:31:46;;;;;;;1.80;1.40;;;;;;;4.33;83.51;97734.22;5093995;28;20093;-61
2023/10/09 13:34:14;;;;;;;2.38;1.30;;;;;;;4.31;83.59;97731.81;5076456;28;20043;-60
2023/10/09 13:36:53;;;;;;;1.58;1.20;;;;;;;4.28;83.84;97734.91;5093950;28;20569;-60
2023/10/09 13:41:46;;;;;;;2.10;1.88;;;;;;;4.25;84.07;97742.47;5094140;28;20059;-61
2023/10/09 13:44:11;;;;;;;2.85;1.40;;;;;;;4.22;84.24;97741.13;5075135;28;20047;-60
2023/10/09 13:46:44;;;;;;;2.65;1.70;;;;;;;4.23;83.14;97755.81;5075503;28;20461;-60
2023/10/09 13:49:13;;;;;;;2.22;1.60;;;;;;;4.27;82.48;97743.03;5092423;28;20413;-61
2023/10/09 13:51:43;;;;;;;1.23;1.10;;;;;;;4.23;81.39;97749.78;5093512;28;20489;-60
2023/10/09 13:54:28;;;;;;;1.92;1.20;;;;;;;4.26;81.29;97759.78;5075644;28;20044;-59
2023/10/09 13:56:55;;;;;;;2.45;1.30;;;;;;;4.21;81.52;97763.13;5091531;28;20474;-59
2023/10/09 13:59:24;;;;;;;3.20;1.60;;;;;;;4.15;81.49;97764.09;5092816;28;20056;-59
2023/10/09 14:01:50;;;;;;;3.03;1.87;;;;;;;4.20;82.05;97760.72;5093290;28;20051;-59
2023/10/09 14:04:19;;;;;;;2.50;1.80;;;;;;;4.17;82.41;97767.25;5091378;28;20051;-57
2023/10/09 14:06:45;;;;;;;5.03;2.20;;;;;;;4.14;82.12;97765.09;5088920;28;20039;-60
2023/10/09 14:09:27;;;;;;;4.90;1.70;;;;;;;4.11;82.35;97765.56;5093441;28;20048;-61
2023/10/09 14:12:07;;;;;;;3.42;1.75;;;;;;;4.06;82.94;97775.97;5093125;28;20058;-58
2023/10/09 14:14:46;;;;;;;4.22;1.83;;;;;;;4.06;82.11;97778.59;5093390;28;20051;-61
2023/10/09 14:17:19;;;;;;;2.22;1.63;;;;;;;4.05;81.45;97783.03;5092244;28;20032;-60
2023/10/09 14:19:47;;;;;;;2.55;1.20;;;;;;;4.02;82.20;97782.69;5054553;28;20080;-59
2023/10/09 14:22:15;;;;;;;1.55;1.30;;;;;;;4.05;81.14;97782.22;5088294;28;20112;-60
2023/10/09 14:24:45;;;;;;;1.83;1.60;;;;;;;4.06;82.15;97789.09;5058244;28;20098;-62
2023/10/09 14:27:17;;;;;;;2.28;1.42;;;;;;;4.05;81.52;97792.72;5057946;28;20044;-60
2023/10/09 14:29:49;;;;;;;1.38;1.27;;;;;;;4.05;82.01;97792.72;5092928;28;20067;-62
2023/10/09 14:32:15;;;;;;;2.67;1.80;;;;;;;4.03;81.58;97792.97;5092834;28;20024;-60
2023/10/09 14:34:51;;;;;;;2.33;1.50;;;;;;;4.04;80.67;97812.13;5092958;28;20094;-61
2023/10/09 14:37:19;;;;;;;4.68;2.35;;;;;;;4.01;81.13;97799.47;5092075;28;20047;-60
2023/10/09 14:39:48;;;;;;;1.98;1.40;;;;;;;3.94;81.61;97785.69;5092816;28;20475;-60
2023/10/09 14:42:15;;;;;;;1.40;1.23;;;;;;;3.86;81.91;97811.25;5074200;28;20563;-60
2023/10/09 14:44:41;;;;;;;1.98;1.60;;;;;;;3.82;81.43;97815.38;5074461;28;20135;-61
2023/10/09 14:47:07;;;;;;;1.88;1.30;;;;;;;3.76;81.75;97818.13;5057404;28;20432;-60
2023/10/09 14:49:38;;;;;;;1.38;1.20;;;;;;;3.68;81.63;97824.53;5054890;28;20048;-60
2023/10/09 14:52:08;;;;;;;3.15;1.75;;;;;;;3.59;82.76;97818.84;5089724;28;20509;-60